createdAt,value
2018-12-13T00:00:04.242Z,6.8
2018-12-13T00:00:16.794Z,6.8
2018-12-13T00:00:29.152Z,6.8
2018-12-13T00:00:41.645Z,6.8
2018-12-13T00:00:53.997Z,6.8
2018-12-13T00:01:06.360Z,6.8
2018-12-13T00:01:18.751Z,6.8
2018-12-13T00:01:31.266Z,6.8
2018-12-13T00:01:43.636Z,6.8
2018-12-13T00:01:55.984Z,6.8
2018-12-13T00:02:08.347Z,7.45
2018-12-13T00:02:20.720Z,7.45
2018-12-13T00:02:33.066Z,7.45
2018-12-13T00:02:45.554Z,7.45
2018-12-13T00:02:59.346Z,7.45
2018-12-13T00:03:11.748Z,7.45
2018-12-13T00:03:24.113Z,7.45
2018-12-13T00:03:36.456Z,7.45
2018-12-13T00:03:48.795Z,7.45
2018-12-13T00:04:01.144Z,7.45
2018-12-13T00:04:13.506Z,7.45
2018-12-13T00:04:25.870Z,7.45
2018-12-13T00:04:38.218Z,7.45
2018-12-13T00:04:50.579Z,7.45
2018-12-13T00:05:02.929Z,7.45
2018-12-13T00:05:15.299Z,7.45
2018-12-13T00:05:27.721Z,7.45
2018-12-13T00:05:40.081Z,7.45
2018-12-13T00:05:52.429Z,7.45
2018-12-13T00:06:04.789Z,7.45
2018-12-13T00:06:17.153Z,7.45
2018-12-13T00:06:35.643Z,7.45
2018-12-13T00:06:47.990Z,7.45
2018-12-13T00:07:00.377Z,7.45
2018-12-13T00:07:12.714Z,7.45
2018-12-13T00:07:25.076Z,7.45
2018-12-13T00:07:37.422Z,7.45
2018-12-13T00:07:49.778Z,7.45
2018-12-13T00:08:02.130Z,7.45
2018-12-13T00:08:14.495Z,7.45
2018-12-13T00:08:26.855Z,7.45
2018-12-13T00:08:39.218Z,7.45
2018-12-13T00:08:51.608Z,7.45
2018-12-13T00:09:03.957Z,7.45
2018-12-13T00:09:16.366Z,7.45
2018-12-13T00:09:28.764Z,7.45
2018-12-13T00:09:41.174Z,7.45
2018-12-13T00:09:53.523Z,7.45
2018-12-13T00:10:05.882Z,7.45
2018-12-13T00:10:18.231Z,7.45
2018-12-13T00:10:30.915Z,7.45
2018-12-13T00:10:43.280Z,7.45
2018-12-13T00:10:55.621Z,7.45
2018-12-13T00:11:07.972Z,7.45
2018-12-13T00:11:20.327Z,7.45
2018-12-13T00:11:32.748Z,7.45
2018-12-13T00:11:45.141Z,7.45
2018-12-13T00:11:57.471Z,7.9
2018-12-13T00:12:09.865Z,7.9
2018-12-13T00:12:22.196Z,7.9
2018-12-13T00:12:34.528Z,7.9
2018-12-13T00:12:46.881Z,7.9
2018-12-13T00:12:59.237Z,7.9
2018-12-13T00:13:11.609Z,7.9
2018-12-13T00:13:23.957Z,7.9
2018-12-13T00:13:36.293Z,7.9
2018-12-13T00:13:48.685Z,7.9
2018-12-13T00:14:01.033Z,7.9
2018-12-13T00:14:13.577Z,7.9
2018-12-13T00:14:25.909Z,7.9
2018-12-13T00:14:38.255Z,7.9
2018-12-13T00:14:50.597Z,7.9
2018-12-13T00:15:02.940Z,7.9
2018-12-13T00:15:15.302Z,7.9
2018-12-13T00:15:27.648Z,7.9
2018-12-13T00:15:39.997Z,7.9
2018-12-13T00:15:52.342Z,7.9
2018-12-13T00:16:04.826Z,7.9
2018-12-13T00:16:17.187Z,7.9
2018-12-13T00:16:29.540Z,7.9
2018-12-13T00:16:42.970Z,7.9
2018-12-13T00:16:55.311Z,7.9
2018-12-13T00:17:07.673Z,7.9
2018-12-13T00:17:20.095Z,7.9
2018-12-13T00:17:32.458Z,7.9
2018-12-13T00:17:44.854Z,7.9
2018-12-13T00:17:57.194Z,7.9
2018-12-13T00:18:09.552Z,7.9
2018-12-13T00:18:22.041Z,7.9
2018-12-13T00:18:34.395Z,7.9
2018-12-13T00:18:46.881Z,7.9
2018-12-13T00:18:59.224Z,7.9
2018-12-13T00:19:11.580Z,7.9
2018-12-13T00:19:23.940Z,7.9
2018-12-13T00:19:36.285Z,7.9
2018-12-13T00:19:48.697Z,7.9
2018-12-13T00:20:01.104Z,7.9
2018-12-13T00:20:13.465Z,7.9
2018-12-13T00:20:25.810Z,7.9
2018-12-13T00:20:38.159Z,7.9
2018-12-13T00:20:50.551Z,7.9
2018-12-13T00:21:02.904Z,7.9
2018-12-13T00:21:15.253Z,7.9
2018-12-13T00:21:27.586Z,7.9
2018-12-13T00:21:40.156Z,7.9
2018-12-13T00:21:52.515Z,7.9
2018-12-13T00:22:04.855Z,8.09
2018-12-13T00:22:17.254Z,8.09
2018-12-13T00:22:29.580Z,8.09
2018-12-13T00:22:41.923Z,8.09
2018-12-13T00:22:54.283Z,8.09
2018-12-13T00:23:06.620Z,8.09
2018-12-13T00:23:19.022Z,8.09
2018-12-13T00:23:31.362Z,8.09
2018-12-13T00:23:43.714Z,8.09
2018-12-13T00:23:56.058Z,8.09
2018-12-13T00:24:08.410Z,8.09
2018-12-13T00:24:20.760Z,8.09
2018-12-13T00:24:33.102Z,8.09
2018-12-13T00:24:45.440Z,8.09
2018-12-13T00:24:57.782Z,8.09
2018-12-13T00:25:10.145Z,8.09
2018-12-13T00:25:22.514Z,8.09
2018-12-13T00:25:34.858Z,8.09
2018-12-13T00:25:47.217Z,8.09
2018-12-13T00:25:59.610Z,8.09
2018-12-13T00:26:11.953Z,8.09
2018-12-13T00:26:24.518Z,8.09
2018-12-13T00:26:36.878Z,8.09
2018-12-13T00:26:49.227Z,8.09
2018-12-13T00:27:01.575Z,8.09
2018-12-13T00:27:13.914Z,8.09
2018-12-13T00:27:26.253Z,8.09
2018-12-13T00:27:38.585Z,8.09
2018-12-13T00:27:50.935Z,8.09
2018-12-13T00:28:03.301Z,8.09
2018-12-13T00:28:15.685Z,8.09
2018-12-13T00:28:28.081Z,8.09
2018-12-13T00:28:40.414Z,8.09
2018-12-13T00:28:52.798Z,8.09
2018-12-13T00:29:05.234Z,8.09
2018-12-13T00:29:17.701Z,8.09
2018-12-13T00:29:30.029Z,8.09
2018-12-13T00:29:42.515Z,8.09
2018-12-13T00:29:54.917Z,8.09
2018-12-13T00:30:07.243Z,8.09
2018-12-13T00:30:19.636Z,8.09
2018-12-13T00:30:32.036Z,8.09
2018-12-13T00:30:44.624Z,8.09
2018-12-13T00:30:56.986Z,8.09
2018-12-13T00:31:09.340Z,8.09
2018-12-13T00:31:21.871Z,8.09
2018-12-13T00:31:34.228Z,8.09
2018-12-13T00:31:46.577Z,8.09
2018-12-13T00:31:58.915Z,8.4
2018-12-13T00:32:11.277Z,8.4
2018-12-13T00:32:23.633Z,8.4
2018-12-13T00:32:35.994Z,8.4
2018-12-13T00:32:48.341Z,8.4
2018-12-13T00:33:00.702Z,8.4
2018-12-13T00:33:13.293Z,8.4
2018-12-13T00:33:25.671Z,8.4
2018-12-13T00:33:38.021Z,8.4
2018-12-13T00:33:50.366Z,8.4
2018-12-13T00:34:02.711Z,8.4
2018-12-13T00:34:15.049Z,8.4
2018-12-13T00:34:27.476Z,8.4
2018-12-13T00:34:39.918Z,8.4
2018-12-13T00:34:52.285Z,8.4
2018-12-13T00:35:04.636Z,8.4
2018-12-13T00:35:16.976Z,8.4
2018-12-13T00:35:29.336Z,8.4
2018-12-13T00:35:41.897Z,8.4
2018-12-13T00:35:54.241Z,8.4
2018-12-13T00:36:06.640Z,8.4
2018-12-13T00:36:19.008Z,8.4
2018-12-13T00:36:31.489Z,8.4
2018-12-13T00:36:49.771Z,8.4
2018-12-13T00:37:02.140Z,8.4
2018-12-13T00:37:14.492Z,8.4
2018-12-13T00:37:26.914Z,8.4
2018-12-13T00:37:39.488Z,8.4
2018-12-13T00:37:51.843Z,8.4
2018-12-13T00:38:04.284Z,8.4
2018-12-13T00:38:16.667Z,8.4
2018-12-13T00:38:30.163Z,8.4
2018-12-13T00:38:42.607Z,8.4
2018-12-13T00:38:54.992Z,8.4
2018-12-13T00:39:07.356Z,8.4
2018-12-13T00:39:19.712Z,8.4
2018-12-13T00:39:32.091Z,8.4
2018-12-13T00:39:44.498Z,8.4
2018-12-13T00:39:56.931Z,8.4
2018-12-13T00:40:09.291Z,8.4
2018-12-13T00:40:21.641Z,8.4
2018-12-13T00:40:34.015Z,8.4
2018-12-13T00:40:46.377Z,8.4
2018-12-13T00:40:59.938Z,8.4
2018-12-13T00:41:12.346Z,8.4
2018-12-13T00:41:24.702Z,8.4
2018-12-13T00:41:37.030Z,8.4
2018-12-13T00:41:49.382Z,8.4
2018-12-13T00:42:01.809Z,9.41
2018-12-13T00:42:14.197Z,9.41
2018-12-13T00:42:26.547Z,9.41
2018-12-13T00:42:38.887Z,9.41
2018-12-13T00:42:51.228Z,9.41
2018-12-13T00:43:03.587Z,9.41
2018-12-13T00:43:15.937Z,9.41
2018-12-13T00:43:28.286Z,9.41
2018-12-13T00:43:40.636Z,9.41
2018-12-13T00:43:52.979Z,9.41
2018-12-13T00:44:05.330Z,9.41
2018-12-13T00:44:17.683Z,9.41
2018-12-13T00:44:30.024Z,9.41
2018-12-13T00:44:42.376Z,9.41
2018-12-13T00:44:54.725Z,9.41
2018-12-13T00:45:07.088Z,9.41
2018-12-13T00:45:19.429Z,9.41
2018-12-13T00:45:31.874Z,9.41
2018-12-13T00:45:44.233Z,9.41
2018-12-13T00:45:56.577Z,9.41
2018-12-13T00:46:08.914Z,9.41
2018-12-13T00:46:21.260Z,9.41
2018-12-13T00:46:33.601Z,9.41
2018-12-13T00:46:45.947Z,9.41
2018-12-13T00:46:58.304Z,9.41
2018-12-13T00:47:10.657Z,9.41
2018-12-13T00:47:23.021Z,9.41
2018-12-13T00:47:35.543Z,9.41
2018-12-13T00:47:47.885Z,9.41
2018-12-13T00:48:00.229Z,9.41
2018-12-13T00:48:12.568Z,9.41
2018-12-13T00:48:24.922Z,9.41
2018-12-13T00:48:37.275Z,9.41
2018-12-13T00:48:49.632Z,9.41
2018-12-13T00:49:01.970Z,9.41
2018-12-13T00:49:14.403Z,9.41
2018-12-13T00:49:26.768Z,9.41
2018-12-13T00:49:39.114Z,9.41
2018-12-13T00:49:51.448Z,9.41
2018-12-13T00:50:03.963Z,9.41
2018-12-13T00:50:16.310Z,9.41
2018-12-13T00:50:28.656Z,9.41
2018-12-13T00:50:41.016Z,9.41
2018-12-13T00:50:53.356Z,9.41
2018-12-13T00:51:05.701Z,9.41
2018-12-13T00:51:18.057Z,9.41
2018-12-13T00:51:30.392Z,9.41
2018-12-13T00:51:42.751Z,9.41
2018-12-13T00:51:55.098Z,9.41
2018-12-13T00:52:07.601Z,9.95
2018-12-13T00:52:19.940Z,9.95
2018-12-13T00:52:32.270Z,9.95
2018-12-13T00:52:44.615Z,9.95
2018-12-13T00:52:56.941Z,9.95
2018-12-13T00:53:09.269Z,9.95
2018-12-13T00:53:21.623Z,9.95
2018-12-13T00:53:33.956Z,9.95
2018-12-13T00:53:46.304Z,9.95
2018-12-13T00:53:58.662Z,9.95
2018-12-13T00:54:11.157Z,9.95
2018-12-13T00:54:23.502Z,9.95
2018-12-13T00:54:35.859Z,9.95
2018-12-13T00:54:48.245Z,9.95
2018-12-13T00:55:00.738Z,9.95
2018-12-13T00:55:13.091Z,9.95
2018-12-13T00:55:25.514Z,9.95
2018-12-13T00:55:37.872Z,9.95
2018-12-13T00:55:50.212Z,9.95
2018-12-13T00:56:02.563Z,9.95
2018-12-13T00:56:14.899Z,9.95
2018-12-13T00:56:27.233Z,9.95
2018-12-13T00:56:39.737Z,9.95
2018-12-13T00:56:52.408Z,9.95
2018-12-13T00:57:04.758Z,9.95
2018-12-13T00:57:17.111Z,9.95
2018-12-13T00:57:29.448Z,9.95
2018-12-13T00:57:41.861Z,9.95
2018-12-13T00:57:54.195Z,9.95
2018-12-13T00:58:06.573Z,9.95
2018-12-13T00:58:18.907Z,9.95
2018-12-13T00:58:31.252Z,9.95
2018-12-13T00:58:43.609Z,9.95
2018-12-13T00:58:56.215Z,9.95
2018-12-13T00:59:08.552Z,9.95
2018-12-13T00:59:20.909Z,9.95
2018-12-13T00:59:33.264Z,9.95
2018-12-13T00:59:45.605Z,9.95
2018-12-13T00:59:57.970Z,9.95
2018-12-13T01:00:10.340Z,9.95
2018-12-13T01:00:22.738Z,9.95
2018-12-13T01:00:35.100Z,9.95
2018-12-13T01:00:47.462Z,9.95
2018-12-13T01:00:59.815Z,9.95
2018-12-13T01:01:12.166Z,9.95
2018-12-13T01:01:24.529Z,9.95
2018-12-13T01:01:37.026Z,9.95
2018-12-13T01:01:49.381Z,9.95
2018-12-13T01:02:01.733Z,9.9
2018-12-13T01:02:14.099Z,9.9
2018-12-13T01:02:26.444Z,9.9
2018-12-13T01:02:38.785Z,9.9
2018-12-13T01:02:51.224Z,9.9
2018-12-13T01:03:03.580Z,9.9
2018-12-13T01:03:15.962Z,9.9
2018-12-13T01:03:28.352Z,9.9
2018-12-13T01:03:40.772Z,9.9
2018-12-13T01:03:53.666Z,9.9
2018-12-13T01:04:06.031Z,9.9
2018-12-13T01:04:18.389Z,9.9
2018-12-13T01:04:30.761Z,9.9
2018-12-13T01:04:43.115Z,9.9
2018-12-13T01:04:55.453Z,9.9
2018-12-13T01:05:07.785Z,9.9
2018-12-13T01:05:20.141Z,9.9
2018-12-13T01:05:32.604Z,9.9
2018-12-13T01:05:45.368Z,9.9
2018-12-13T01:05:57.732Z,9.9
2018-12-13T01:06:10.198Z,9.9
2018-12-13T01:06:22.544Z,9.9
2018-12-13T01:06:34.900Z,9.9
2018-12-13T01:06:52.840Z,9.9
2018-12-13T01:07:05.181Z,9.9
2018-12-13T01:07:17.606Z,9.9
2018-12-13T01:07:29.966Z,9.9
2018-12-13T01:07:42.307Z,9.9
2018-12-13T01:07:54.717Z,9.9
2018-12-13T01:08:07.050Z,9.9
2018-12-13T01:08:19.430Z,9.9
2018-12-13T01:08:31.789Z,9.9
2018-12-13T01:08:44.138Z,9.9
2018-12-13T01:08:56.476Z,9.9
2018-12-13T01:09:08.819Z,9.9
2018-12-13T01:09:21.175Z,9.9
2018-12-13T01:09:33.551Z,9.9
2018-12-13T01:09:45.891Z,9.9
2018-12-13T01:09:58.322Z,9.9
2018-12-13T01:10:10.677Z,9.9
2018-12-13T01:10:23.013Z,9.9
2018-12-13T01:10:36.610Z,9.9
2018-12-13T01:10:49.152Z,9.9
2018-12-13T01:11:01.510Z,9.9
2018-12-13T01:11:13.858Z,9.9
2018-12-13T01:11:26.206Z,9.9
2018-12-13T01:11:38.557Z,9.9
2018-12-13T01:11:50.921Z,9.9
2018-12-13T01:12:03.356Z,11.25
2018-12-13T01:12:15.706Z,11.25
2018-12-13T01:12:28.048Z,11.25
2018-12-13T01:12:40.402Z,11.25
2018-12-13T01:12:52.796Z,11.25
2018-12-13T01:13:05.152Z,11.25
2018-12-13T01:13:17.556Z,11.25
2018-12-13T01:13:29.917Z,11.25
2018-12-13T01:13:42.284Z,11.25
2018-12-13T01:13:54.642Z,11.25
2018-12-13T01:14:07.031Z,11.25
2018-12-13T01:14:19.551Z,11.25
2018-12-13T01:14:31.885Z,11.25
2018-12-13T01:14:44.226Z,11.25
2018-12-13T01:14:56.571Z,11.25
2018-12-13T01:15:08.970Z,11.25
2018-12-13T01:15:21.313Z,11.25
2018-12-13T01:15:33.641Z,11.25
2018-12-13T01:15:45.977Z,11.25
2018-12-13T01:15:58.448Z,11.25
2018-12-13T01:16:10.802Z,11.25
2018-12-13T01:16:23.151Z,11.25
2018-12-13T01:16:35.515Z,11.25
2018-12-13T01:16:47.876Z,11.25
2018-12-13T01:17:00.219Z,11.25
2018-12-13T01:17:12.556Z,11.25
2018-12-13T01:17:24.908Z,11.25
2018-12-13T01:17:37.563Z,11.25
2018-12-13T01:17:49.906Z,11.25
2018-12-13T01:18:02.259Z,11.25
2018-12-13T01:18:14.746Z,11.25
2018-12-13T01:18:27.094Z,11.25
2018-12-13T01:18:39.604Z,11.25
2018-12-13T01:18:51.956Z,11.25
2018-12-13T01:19:04.319Z,11.25
2018-12-13T01:19:16.663Z,11.25
2018-12-13T01:19:29.022Z,11.25
2018-12-13T01:19:41.359Z,11.25
2018-12-13T01:19:53.746Z,11.25
2018-12-13T01:20:06.111Z,11.25
2018-12-13T01:20:18.451Z,11.25
2018-12-13T01:20:30.863Z,11.25
2018-12-13T01:20:43.978Z,11.25
2018-12-13T01:20:56.386Z,11.25
2018-12-13T01:21:08.813Z,11.25
2018-12-13T01:21:27.358Z,11.25
2018-12-13T01:21:39.716Z,11.25
2018-12-13T01:21:52.054Z,11.25
2018-12-13T01:22:04.404Z,13.5
2018-12-13T01:22:16.756Z,13.5
2018-12-13T01:22:29.119Z,13.5
2018-12-13T01:22:41.474Z,13.5
2018-12-13T01:22:53.845Z,13.5
2018-12-13T01:23:06.194Z,13.5
2018-12-13T01:23:18.551Z,13.5
2018-12-13T01:23:30.932Z,13.5
2018-12-13T01:23:43.310Z,13.5
2018-12-13T01:23:55.660Z,13.5
2018-12-13T01:24:08.018Z,13.5
2018-12-13T01:24:20.560Z,13.5
2018-12-13T01:24:32.907Z,13.5
2018-12-13T01:24:45.261Z,13.5
2018-12-13T01:24:57.621Z,13.5
2018-12-13T01:25:09.977Z,13.5
2018-12-13T01:25:22.389Z,13.5
2018-12-13T01:25:34.729Z,13.5
2018-12-13T01:25:47.085Z,13.5
2018-12-13T01:25:59.425Z,13.5
2018-12-13T01:26:11.776Z,13.5
2018-12-13T01:26:24.283Z,13.5
2018-12-13T01:26:36.636Z,13.5
2018-12-13T01:26:49.122Z,13.5
2018-12-13T01:27:01.462Z,13.5
2018-12-13T01:27:13.826Z,13.5
2018-12-13T01:27:26.188Z,13.5
2018-12-13T01:27:38.583Z,13.5
2018-12-13T01:27:50.935Z,13.5
2018-12-13T01:28:03.278Z,13.5
2018-12-13T01:28:15.638Z,13.5
2018-12-13T01:28:27.982Z,13.5
2018-12-13T01:28:40.348Z,13.5
2018-12-13T01:28:52.709Z,13.5
2018-12-13T01:29:05.052Z,13.5
2018-12-13T01:29:17.412Z,13.5
2018-12-13T01:29:29.764Z,13.5
2018-12-13T01:29:42.316Z,13.5
2018-12-13T01:29:54.652Z,13.5
2018-12-13T01:30:07.021Z,13.5
2018-12-13T01:30:19.356Z,13.5
2018-12-13T01:30:31.834Z,13.5
2018-12-13T01:30:44.545Z,13.5
2018-12-13T01:30:56.913Z,13.5
2018-12-13T01:31:09.257Z,13.5
2018-12-13T01:31:21.589Z,13.5
2018-12-13T01:31:33.953Z,13.5
2018-12-13T01:31:46.303Z,13.5
2018-12-13T01:31:58.642Z,13.5
2018-12-13T01:32:10.986Z,14.13
2018-12-13T01:32:23.336Z,14.13
2018-12-13T01:32:35.844Z,14.13
2018-12-13T01:32:48.209Z,14.13
2018-12-13T01:33:00.600Z,14.13
2018-12-13T01:33:13.083Z,14.13
2018-12-13T01:33:25.450Z,14.13
2018-12-13T01:33:37.806Z,14.13
2018-12-13T01:33:50.306Z,14.13
2018-12-13T01:34:02.684Z,14.13
2018-12-13T01:34:15.090Z,14.13
2018-12-13T01:34:27.445Z,14.13
2018-12-13T01:34:39.799Z,14.13
2018-12-13T01:34:52.155Z,14.13
2018-12-13T01:35:04.491Z,14.13
2018-12-13T01:35:16.831Z,14.13
2018-12-13T01:35:29.174Z,14.13
2018-12-13T01:35:41.533Z,14.13
2018-12-13T01:35:53.936Z,14.13
2018-12-13T01:36:06.302Z,14.13
2018-12-13T01:36:18.672Z,14.13
2018-12-13T01:36:31.016Z,14.13
2018-12-13T01:36:43.362Z,14.13
2018-12-13T01:37:01.503Z,14.13
2018-12-13T01:37:13.845Z,14.13
2018-12-13T01:37:26.200Z,14.13
2018-12-13T01:37:38.752Z,14.13
2018-12-13T01:37:51.090Z,14.13
2018-12-13T01:38:03.624Z,14.13
2018-12-13T01:38:15.999Z,14.13
2018-12-13T01:38:28.342Z,14.13
2018-12-13T01:38:40.692Z,14.13
2018-12-13T01:38:53.033Z,14.13
2018-12-13T01:39:05.389Z,14.13
2018-12-13T01:39:17.737Z,14.13
2018-12-13T01:39:30.068Z,14.13
2018-12-13T01:39:42.549Z,14.13
2018-12-13T01:39:55.182Z,14.13
2018-12-13T01:40:07.539Z,14.13
2018-12-13T01:40:19.889Z,14.13
2018-12-13T01:40:32.247Z,14.13
2018-12-13T01:40:44.591Z,14.13
2018-12-13T01:40:57.116Z,14.13
2018-12-13T01:41:09.628Z,14.13
2018-12-13T01:41:21.975Z,14.13
2018-12-13T01:41:34.384Z,14.13
2018-12-13T01:41:46.723Z,14.13
2018-12-13T01:41:59.088Z,14.13
2018-12-13T01:42:11.431Z,12.79
2018-12-13T01:42:23.838Z,12.79
2018-12-13T01:42:36.182Z,12.79
2018-12-13T01:42:48.560Z,12.79
2018-12-13T01:43:00.909Z,12.79
2018-12-13T01:43:13.823Z,12.79
2018-12-13T01:43:26.177Z,12.79
2018-12-13T01:43:38.518Z,12.79
2018-12-13T01:43:50.902Z,12.79
2018-12-13T01:44:03.234Z,12.79
2018-12-13T01:44:15.594Z,12.79
2018-12-13T01:44:27.940Z,12.79
2018-12-13T01:44:40.279Z,12.79
2018-12-13T01:44:52.716Z,12.79
2018-12-13T01:45:05.080Z,12.79
2018-12-13T01:45:17.410Z,12.79
2018-12-13T01:45:29.763Z,12.79
2018-12-13T01:45:42.102Z,12.79
2018-12-13T01:45:54.454Z,12.79
2018-12-13T01:46:06.793Z,12.79
2018-12-13T01:46:19.180Z,12.79
2018-12-13T01:46:31.534Z,12.79
2018-12-13T01:46:43.871Z,12.79
2018-12-13T01:46:56.210Z,12.79
2018-12-13T01:47:08.548Z,12.79
2018-12-13T01:47:20.907Z,12.79
2018-12-13T01:47:33.395Z,12.79
2018-12-13T01:47:45.751Z,12.79
2018-12-13T01:47:58.118Z,12.79
2018-12-13T01:48:10.475Z,12.79
2018-12-13T01:48:22.821Z,12.79
2018-12-13T01:48:35.188Z,12.79
2018-12-13T01:48:47.522Z,12.79
2018-12-13T01:49:00.041Z,12.79
2018-12-13T01:49:12.374Z,12.79
2018-12-13T01:49:24.766Z,12.79
2018-12-13T01:49:37.109Z,12.79
2018-12-13T01:49:49.458Z,12.79
2018-12-13T01:50:02.057Z,12.79
2018-12-13T01:50:14.412Z,12.79
2018-12-13T01:50:26.783Z,12.79
2018-12-13T01:50:39.124Z,12.79
2018-12-13T01:50:51.485Z,12.79
2018-12-13T01:51:03.872Z,12.79
2018-12-13T01:51:16.212Z,12.79
2018-12-13T01:51:28.572Z,12.79
2018-12-13T01:51:40.928Z,12.79
2018-12-13T01:51:53.288Z,12.79
2018-12-13T01:52:05.786Z,14.41
2018-12-13T01:52:18.204Z,14.41
2018-12-13T01:52:30.554Z,14.41
2018-12-13T01:52:42.894Z,14.41
2018-12-13T01:52:55.228Z,14.41
2018-12-13T01:53:07.587Z,14.41
2018-12-13T01:53:19.995Z,14.41
2018-12-13T01:53:32.335Z,14.41
2018-12-13T01:53:44.753Z,14.41
2018-12-13T01:53:57.121Z,14.41
2018-12-13T01:54:09.735Z,14.41
2018-12-13T01:54:22.091Z,14.41
2018-12-13T01:54:34.439Z,14.41
2018-12-13T01:54:46.811Z,14.41
2018-12-13T01:54:59.265Z,14.41
2018-12-13T01:55:11.643Z,14.41
2018-12-13T01:55:24.035Z,14.41
2018-12-13T01:55:36.440Z,14.41
2018-12-13T01:55:48.831Z,14.41
2018-12-13T01:56:01.161Z,14.41
2018-12-13T01:56:13.512Z,14.41
2018-12-13T01:56:25.870Z,14.41
2018-12-13T01:56:38.380Z,14.41
2018-12-13T01:56:50.789Z,14.41
2018-12-13T01:57:03.265Z,14.41
2018-12-13T01:57:15.611Z,14.41
2018-12-13T01:57:27.963Z,14.41
2018-12-13T01:57:40.321Z,14.41
2018-12-13T01:57:52.687Z,14.41
2018-12-13T01:58:05.777Z,14.41
2018-12-13T01:58:18.227Z,14.41
2018-12-13T01:58:30.619Z,14.41
2018-12-13T01:58:42.994Z,14.41
2018-12-13T01:58:55.351Z,14.41
2018-12-13T01:59:07.697Z,14.41
2018-12-13T01:59:20.052Z,14.41
2018-12-13T01:59:32.409Z,14.41
2018-12-13T01:59:44.749Z,14.41
2018-12-13T01:59:57.103Z,14.41
2018-12-13T02:00:09.529Z,14.41
2018-12-13T02:00:21.911Z,14.41
2018-12-13T02:00:34.302Z,14.41
2018-12-13T02:00:46.672Z,14.41
2018-12-13T02:00:59.034Z,14.41
2018-12-13T02:01:11.447Z,14.41
2018-12-13T02:01:23.823Z,14.41
2018-12-13T02:01:36.467Z,14.41
2018-12-13T02:01:48.805Z,14.41
2018-12-13T02:02:01.153Z,14.41
2018-12-13T02:02:13.516Z,15.57
2018-12-13T02:02:25.868Z,15.57
2018-12-13T02:02:38.212Z,15.57
2018-12-13T02:02:50.603Z,15.57
2018-12-13T02:03:02.946Z,15.57
2018-12-13T02:03:15.293Z,15.57
2018-12-13T02:03:27.653Z,15.57
2018-12-13T02:03:40.004Z,15.57
2018-12-13T02:03:52.430Z,15.57
2018-12-13T02:04:04.798Z,15.57
2018-12-13T02:04:17.160Z,15.57
2018-12-13T02:04:29.544Z,15.57
2018-12-13T02:04:41.878Z,15.57
2018-12-13T02:04:54.265Z,15.57
2018-12-13T02:05:06.603Z,15.57
2018-12-13T02:05:18.955Z,15.57
2018-12-13T02:05:31.454Z,15.57
2018-12-13T02:05:43.905Z,15.57
2018-12-13T02:05:56.324Z,15.57
2018-12-13T02:06:08.692Z,15.57
2018-12-13T02:06:21.053Z,15.57
2018-12-13T02:06:33.406Z,15.57
2018-12-13T02:06:45.750Z,15.57
2018-12-13T02:07:04.462Z,15.57
2018-12-13T02:07:16.807Z,15.57
2018-12-13T02:07:29.168Z,15.57
2018-12-13T02:07:41.493Z,15.57
2018-12-13T02:07:53.850Z,15.57
2018-12-13T02:08:06.209Z,15.57
2018-12-13T02:08:18.567Z,15.57
2018-12-13T02:08:30.926Z,15.57
2018-12-13T02:08:43.275Z,15.57
2018-12-13T02:08:55.682Z,15.57
2018-12-13T02:09:08.045Z,15.57
2018-12-13T02:09:20.404Z,15.57
2018-12-13T02:09:32.754Z,15.57
2018-12-13T02:09:45.090Z,15.57
2018-12-13T02:09:57.447Z,15.57
2018-12-13T02:10:09.800Z,15.57
2018-12-13T02:10:22.165Z,15.57
2018-12-13T02:10:34.513Z,15.57
2018-12-13T02:10:46.848Z,15.57
2018-12-13T02:10:59.191Z,15.57
2018-12-13T02:11:11.544Z,15.57
2018-12-13T02:11:23.955Z,15.57
2018-12-13T02:11:36.371Z,15.57
2018-12-13T02:11:48.713Z,15.57
2018-12-13T02:12:01.240Z,15.57
2018-12-13T02:12:13.574Z,16.51
2018-12-13T02:12:25.908Z,16.51
2018-12-13T02:12:38.292Z,16.51
2018-12-13T02:12:50.640Z,16.51
2018-12-13T02:13:02.981Z,16.51
2018-12-13T02:13:15.333Z,16.51
2018-12-13T02:13:27.677Z,16.51
2018-12-13T02:13:40.028Z,16.51
2018-12-13T02:13:52.360Z,16.51
2018-12-13T02:14:04.752Z,16.51
2018-12-13T02:14:17.325Z,16.51
2018-12-13T02:14:29.703Z,16.51
2018-12-13T02:14:42.083Z,16.51
2018-12-13T02:14:54.447Z,16.51
2018-12-13T02:15:06.801Z,16.51
2018-12-13T02:15:19.154Z,16.51
2018-12-13T02:15:31.495Z,16.51
2018-12-13T02:15:43.849Z,16.51
2018-12-13T02:15:56.197Z,16.51
2018-12-13T02:16:08.694Z,16.51
2018-12-13T02:16:21.055Z,16.51
2018-12-13T02:16:33.394Z,16.51
2018-12-13T02:16:45.741Z,16.51
2018-12-13T02:16:58.096Z,16.51
2018-12-13T02:17:10.459Z,16.51
2018-12-13T02:17:22.815Z,16.51
2018-12-13T02:17:35.305Z,16.51
2018-12-13T02:17:47.646Z,16.51
2018-12-13T02:18:00.012Z,16.51
2018-12-13T02:18:12.503Z,16.51
2018-12-13T02:18:24.846Z,16.51
2018-12-13T02:18:37.319Z,16.51
2018-12-13T02:18:49.681Z,16.51
2018-12-13T02:19:02.074Z,16.51
2018-12-13T02:19:14.407Z,16.51
2018-12-13T02:19:26.764Z,16.51
2018-12-13T02:19:39.104Z,16.51
2018-12-13T02:19:51.470Z,16.51
2018-12-13T02:20:03.819Z,16.51
2018-12-13T02:20:16.161Z,16.51
2018-12-13T02:20:28.501Z,16.51
2018-12-13T02:20:40.844Z,16.51
2018-12-13T02:20:53.189Z,16.51
2018-12-13T02:21:05.543Z,16.51
2018-12-13T02:21:17.887Z,16.51
2018-12-13T02:21:30.243Z,16.51
2018-12-13T02:21:42.590Z,16.51
2018-12-13T02:21:54.939Z,16.51
2018-12-13T02:22:07.289Z,16.33
2018-12-13T02:22:19.639Z,16.33
2018-12-13T02:22:31.969Z,16.33
2018-12-13T02:22:44.573Z,16.33
2018-12-13T02:22:56.904Z,16.33
2018-12-13T02:23:09.245Z,16.33
2018-12-13T02:23:21.598Z,16.33
2018-12-13T02:23:33.947Z,16.33
2018-12-13T02:23:46.297Z,16.33
2018-12-13T02:23:58.658Z,16.33
2018-12-13T02:24:11.016Z,16.33
2018-12-13T02:24:23.361Z,16.33
2018-12-13T02:24:35.830Z,16.33
2018-12-13T02:24:48.164Z,16.33
2018-12-13T02:25:00.509Z,16.33
2018-12-13T02:25:12.850Z,16.33
2018-12-13T02:25:25.264Z,16.33
2018-12-13T02:25:37.599Z,16.33
2018-12-13T02:25:49.949Z,16.33
2018-12-13T02:26:02.303Z,16.33
2018-12-13T02:26:14.649Z,16.33
2018-12-13T02:26:27.098Z,16.33
2018-12-13T02:26:39.441Z,16.33
2018-12-13T02:26:51.766Z,16.33
2018-12-13T02:27:04.127Z,16.33
2018-12-13T02:27:16.528Z,16.33
2018-12-13T02:27:28.882Z,16.33
2018-12-13T02:27:41.229Z,16.33
2018-12-13T02:27:53.560Z,16.33
2018-12-13T02:28:05.921Z,16.33
2018-12-13T02:28:18.302Z,16.33
2018-12-13T02:28:30.731Z,16.33
2018-12-13T02:28:43.076Z,16.33
2018-12-13T02:28:55.418Z,16.33
2018-12-13T02:29:07.788Z,16.33
2018-12-13T02:29:20.139Z,16.33
2018-12-13T02:29:32.471Z,16.33
2018-12-13T02:29:44.974Z,16.33
2018-12-13T02:29:57.321Z,16.33
2018-12-13T02:30:09.729Z,16.33
2018-12-13T02:30:22.138Z,16.33
2018-12-13T02:30:34.782Z,16.33
2018-12-13T02:30:47.312Z,16.33
2018-12-13T02:30:59.814Z,16.33
2018-12-13T02:31:12.173Z,16.33
2018-12-13T02:31:24.555Z,16.33
2018-12-13T02:31:36.916Z,16.33
2018-12-13T02:31:49.318Z,16.33
2018-12-13T02:32:01.730Z,16.33
2018-12-13T02:32:14.133Z,16.5
2018-12-13T02:32:26.516Z,16.5
2018-12-13T02:32:38.901Z,16.5
2018-12-13T02:32:51.274Z,16.5
2018-12-13T02:33:03.662Z,16.5
2018-12-13T02:33:16.131Z,16.5
2018-12-13T02:33:28.508Z,16.5
2018-12-13T02:33:40.858Z,16.5
2018-12-13T02:33:53.213Z,16.5
2018-12-13T02:34:05.610Z,16.5
2018-12-13T02:34:18.098Z,16.5
2018-12-13T02:34:30.511Z,16.5
2018-12-13T02:34:42.975Z,16.5
2018-12-13T02:34:55.344Z,16.5
2018-12-13T02:35:07.728Z,16.5
2018-12-13T02:35:20.099Z,16.5
2018-12-13T02:35:32.457Z,16.5
2018-12-13T02:35:44.818Z,16.5
2018-12-13T02:35:57.194Z,16.5
2018-12-13T02:36:09.584Z,16.5
2018-12-13T02:36:21.982Z,16.5
2018-12-13T02:36:34.396Z,16.5
2018-12-13T02:36:46.778Z,16.5
2018-12-13T02:37:05.717Z,16.5
2018-12-13T02:37:18.322Z,16.5
2018-12-13T02:37:30.746Z,16.5
2018-12-13T02:37:43.363Z,16.5
2018-12-13T02:37:55.813Z,16.5
2018-12-13T02:38:08.189Z,16.5
2018-12-13T02:38:20.553Z,16.5
2018-12-13T02:38:32.951Z,16.5
2018-12-13T02:38:45.351Z,16.5
2018-12-13T02:38:57.727Z,16.5
2018-12-13T02:39:10.113Z,16.5
2018-12-13T02:39:22.495Z,16.5
2018-12-13T02:39:34.882Z,16.5
2018-12-13T02:39:47.401Z,16.5
2018-12-13T02:39:59.949Z,16.5
2018-12-13T02:40:12.336Z,16.5
2018-12-13T02:40:24.741Z,16.5
2018-12-13T02:40:37.125Z,16.5
2018-12-13T02:40:49.502Z,16.5
2018-12-13T02:41:02.038Z,16.5
2018-12-13T02:41:14.493Z,16.5
2018-12-13T02:41:26.865Z,16.5
2018-12-13T02:41:39.239Z,16.5
2018-12-13T02:41:51.673Z,16.5
2018-12-13T02:42:04.056Z,16.5
2018-12-13T02:42:16.496Z,16.48
2018-12-13T02:42:28.856Z,16.48
2018-12-13T02:42:41.217Z,16.48
2018-12-13T02:42:53.628Z,16.48
2018-12-13T02:43:06.014Z,16.48
2018-12-13T02:43:18.390Z,16.48
2018-12-13T02:43:30.751Z,16.48
2018-12-13T02:43:43.118Z,16.48
2018-12-13T02:43:55.482Z,16.48
2018-12-13T02:44:07.854Z,16.48
2018-12-13T02:44:20.245Z,16.48